Frederica, Delaware
Current Conditions -  °F | °C
As of 6:13 PM on Wednesday 22 Oct 2014 (Local Time) from KDOV Reporting Station
Light Rain Light Rain  
Wind Chill: 54°   Ceiling: 1700
Heat Index: 54°   Visibility: 10mi
Dew Point: 54°   Wind: 17mph
Humidity: 100%   Direction: 320°NW
Pressure: 29.81"   Gusts: NA
Location:  39.01°N, 75.47°W
Report Text: KDOV 222213Z AUTO 32015KT 10SM -RA SCT009 BKN017 OVC027 12/12 A2981 RMK AO2 CIG 009V017 BKN V OVC
Loading
Personal Weather Stations






























Interactive Weather Map
Tropical Storm Tracking
New forecast layout! Learn more

10-Day Weather Forecast

Advertisements
Track Severe Weather on mobile